createdAt,value
2023-05-22T00:00:36.023Z,4.40
2023-05-22T00:05:39.562Z,5.18
2023-05-22T00:10:42.788Z,3.67
2023-05-22T00:15:45.429Z,3.92
2023-05-22T00:20:48.657Z,2.20
2023-05-22T00:25:51.225Z,3.40
2023-05-22T00:30:53.761Z,3.05
2023-05-22T00:35:56.516Z,3.45
2023-05-22T00:41:04.263Z,1.98
2023-05-22T00:46:08.122Z,2.83
2023-05-22T00:51:11.285Z,2.78
2023-05-22T00:56:15.584Z,1.90
2023-05-22T01:01:18.355Z,2.55
2023-05-22T01:06:24.751Z,2.35
2023-05-22T01:12:02.020Z,3.08
2023-05-22T01:17:24.992Z,2.40
2023-05-22T01:22:50.286Z,4.03
2023-05-22T01:28:17.002Z,3.65
2023-05-22T01:33:26.424Z,3.88
2023-05-22T01:38:29.737Z,4.78
2023-05-22T01:43:32.449Z,5.82
2023-05-22T01:48:36.541Z,3.67
2023-05-22T01:54:07.077Z,5.15
2023-05-22T01:59:26.945Z,5.20
2023-05-22T02:04:31.932Z,6.13
2023-05-22T02:09:36.325Z,4.63
2023-05-22T02:14:39.702Z,7.30
2023-05-22T02:19:42.418Z,9.07
2023-05-22T02:24:48.943Z,9.70
2023-05-22T02:29:52.366Z,8.35
2023-05-22T02:34:55.217Z,7.80
2023-05-22T02:39:58.615Z,8.27
2023-05-22T02:45:05.495Z,8.57
2023-05-22T02:50:11.046Z,7.70
2023-05-22T02:55:13.912Z,8.77
2023-05-22T03:00:17.241Z,10.82
2023-05-22T03:05:19.976Z,8.73
2023-05-22T03:10:23.160Z,8.18
2023-05-22T03:15:25.759Z,6.03
2023-05-22T03:20:34.280Z,4.90
2023-05-22T03:25:37.308Z,5.70
2023-05-22T03:30:40.288Z,6.85
2023-05-22T03:35:53.594Z,6.03
2023-05-22T03:40:57.287Z,6.82
2023-05-22T03:46:00.740Z,8.05
2023-05-22T03:51:03.472Z,8.68
2023-05-22T03:56:06.217Z,8.82
2023-05-22T04:01:10.578Z,9.23
2023-05-22T04:06:14.024Z,7.72
2023-05-22T04:11:19.467Z,8.15
2023-05-22T04:16:22.689Z,9.65
2023-05-22T04:21:25.560Z,6.60
2023-05-22T04:26:32.356Z,7.20
2023-05-22T04:31:35.224Z,6.22
2023-05-22T04:36:39.221Z,5.57
2023-05-22T04:41:41.894Z,6.60
2023-05-22T04:46:45.062Z,7.65
2023-05-22T04:51:47.904Z,10.95
2023-05-22T04:56:51.892Z,10.20
2023-05-22T05:01:55.199Z,7.88
2023-05-22T05:06:58.185Z,7.35
2023-05-22T05:12:00.881Z,5.90
2023-05-22T05:17:03.715Z,7.38
2023-05-22T05:22:06.372Z,6.90
2023-05-22T05:27:09.580Z,9.00
2023-05-22T05:32:14.263Z,9.07
2023-05-22T05:37:26.456Z,7.50
2023-05-22T05:42:32.639Z,7.38
2023-05-22T05:47:37.256Z,5.13
2023-05-22T05:52:40.491Z,10.10
2023-05-22T05:57:47.756Z,11.23
2023-05-22T06:02:57.075Z,6.55
2023-05-22T06:08:22.929Z,6.32
2023-05-22T06:13:25.964Z,7.90
2023-05-22T06:18:28.659Z,9.52
2023-05-22T06:23:32.803Z,6.47
2023-05-22T06:28:35.570Z,8.98
2023-05-22T06:33:41.021Z,8.18
2023-05-22T06:44:02.944Z,7.57
2023-05-22T06:49:06.584Z,8.70
2023-05-22T06:54:21.545Z,7.40
2023-05-22T06:59:29.159Z,7.47
2023-05-22T07:04:37.714Z,10.20
2023-05-22T07:09:47.921Z,10.32
2023-05-22T07:14:51.334Z,10.52
2023-05-22T07:19:54.284Z,8.80
2023-05-22T07:24:57.362Z,12.32
2023-05-22T07:30:08.588Z,14.13
2023-05-22T07:35:12.884Z,12.52
2023-05-22T07:40:15.757Z,12.15
2023-05-22T07:45:18.853Z,10.73
2023-05-22T07:50:21.997Z,13.35
2023-05-22T07:55:24.910Z,9.32
2023-05-22T08:00:28.762Z,9.60
2023-05-22T08:05:31.408Z,8.07
2023-05-22T08:10:51.974Z,12.30
2023-05-22T08:16:00.158Z,7.78
2023-05-22T08:21:03.464Z,10.45
2023-05-22T08:26:09.044Z,6.38
2023-05-22T08:31:12.523Z,3.78
2023-05-22T08:36:15.279Z,5.68
2023-05-22T08:41:18.031Z,6.00
2023-05-22T08:46:26.726Z,6.30
2023-05-22T08:51:33.090Z,6.90
2023-05-22T08:56:39.782Z,5.95
2023-05-22T09:01:46.918Z,6.43
2023-05-22T09:06:49.998Z,6.45
2023-05-22T09:11:55.301Z,7.97
2023-05-22T09:16:58.032Z,5.68
2023-05-22T09:22:05.141Z,4.95
2023-05-22T09:27:10.118Z,5.00
2023-05-22T09:32:15.270Z,2.33
2023-05-22T09:37:18.703Z,4.97
2023-05-22T09:42:21.978Z,5.38
2023-05-22T09:47:24.606Z,7.57
2023-05-22T09:52:36.507Z,7.35
2023-05-22T09:57:46.780Z,2.88
2023-05-22T10:03:05.364Z,3.22
2023-05-22T10:08:44.102Z,4.50
2023-05-22T10:13:47.913Z,3.90
2023-05-22T10:18:50.943Z,6.20
2023-05-22T10:23:55.348Z,6.80
2023-05-22T10:29:11.861Z,5.40
2023-05-22T10:34:23.283Z,4.38
2023-05-22T10:39:28.922Z,4.85
2023-05-22T10:44:33.729Z,5.97
2023-05-22T10:49:36.540Z,8.57
2023-05-22T10:54:43.966Z,7.00
2023-05-22T10:59:49.652Z,5.97
2023-05-22T11:04:52.305Z,6.10
2023-05-22T11:10:01.027Z,4.70
2023-05-22T11:15:09.101Z,11.18
2023-05-22T11:20:21.354Z,8.68
2023-05-22T11:25:28.035Z,9.45
2023-05-22T11:30:33.520Z,11.15
2023-05-22T11:35:36.247Z,3.75
2023-05-22T11:40:39.285Z,5.50
2023-05-22T11:45:42.144Z,6.40
2023-05-22T11:50:44.972Z,4.53
2023-05-22T11:55:49.939Z,4.82
2023-05-22T12:00:52.648Z,5.03
2023-05-22T12:05:56.664Z,6.22
2023-05-22T12:10:59.363Z,5.68
2023-05-22T12:16:01.933Z,6.43
2023-05-22T12:21:07.161Z,5.75
2023-05-22T12:26:10.467Z,5.72
2023-05-22T12:31:21.085Z,5.45
2023-05-22T12:36:40.671Z,6.25
2023-05-22T12:41:44.461Z,3.92
2023-05-22T12:46:47.558Z,4.85
2023-05-22T12:51:50.202Z,4.38
2023-05-22T12:56:52.765Z,5.63
2023-05-22T13:01:58.130Z,4.60
2023-05-22T13:07:00.826Z,2.22
2023-05-22T13:12:03.561Z,5.28
2023-05-22T13:17:07.135Z,3.35
2023-05-22T13:22:09.869Z,5.80
2023-05-22T13:27:12.753Z,5.32
2023-05-22T13:32:15.681Z,3.38
2023-05-22T13:37:19.259Z,5.53
2023-05-22T13:42:22.730Z,3.10
2023-05-22T13:47:26.898Z,5.03
2023-05-22T13:52:29.733Z,4.90
2023-05-22T13:57:32.499Z,5.45
2023-05-22T14:02:35.234Z,4.95
2023-05-22T14:07:38.233Z,3.55
2023-05-22T14:12:41.191Z,3.85
2023-05-22T14:17:43.879Z,6.43
2023-05-22T14:22:57.091Z,5.43
2023-05-22T14:28:00.120Z,6.13
2023-05-22T14:33:02.877Z,5.28
2023-05-22T14:38:05.546Z,5.40
2023-05-22T14:43:08.108Z,5.90
2023-05-22T14:48:11.890Z,5.82
2023-05-22T14:53:16.393Z,6.55
2023-05-22T14:58:19.118Z,5.43
2023-05-22T15:03:21.888Z,8.43
2023-05-22T15:08:24.471Z,7.75
2023-05-22T15:13:27.131Z,9.75
2023-05-22T15:18:29.868Z,8.18
2023-05-22T15:23:32.691Z,10.73
2023-05-22T15:28:35.337Z,9.40
2023-05-22T15:33:39.448Z,7.97
2023-05-22T15:38:42.869Z,9.02
2023-05-22T15:43:46.555Z,7.80
2023-05-22T15:48:49.261Z,7.88
2023-05-22T15:53:51.821Z,8.00
2023-05-22T15:58:56.080Z,9.48
2023-05-22T16:03:58.751Z,9.48
2023-05-22T16:09:01.383Z,10.75
2023-05-22T16:14:05.019Z,8.73
2023-05-22T16:19:07.695Z,8.77
2023-05-22T16:24:11.311Z,9.80
2023-05-22T16:29:14.165Z,8.55
2023-05-22T16:34:16.767Z,10.35
2023-05-22T16:39:19.514Z,8.75
2023-05-22T16:44:22.240Z,10.18
2023-05-22T16:49:25.865Z,8.77
2023-05-22T16:54:29.564Z,10.90
2023-05-22T16:59:32.348Z,9.93
2023-05-22T17:04:35.160Z,11.80
2023-05-22T17:09:37.674Z,11.82
2023-05-22T17:14:40.415Z,11.55
2023-05-22T17:19:43.049Z,11.30
2023-05-22T17:24:45.654Z,11.80
2023-05-22T17:29:48.253Z,12.18
2023-05-22T17:34:51.098Z,11.38
2023-05-22T17:39:54.158Z,12.35
2023-05-22T17:44:56.733Z,13.82
2023-05-22T17:49:59.371Z,11.50
2023-05-22T17:55:02.076Z,12.38
2023-05-22T18:00:10.296Z,10.68
2023-05-22T18:05:16.137Z,17.02
2023-05-22T18:10:18.890Z,21.63
2023-05-22T18:15:22.077Z,13.70
2023-05-22T18:20:24.784Z,10.15
2023-05-22T18:25:27.479Z,11.85
2023-05-22T18:30:30.604Z,10.07
2023-05-22T18:35:33.342Z,11.23
2023-05-22T18:40:36.009Z,10.80
2023-05-22T18:45:38.856Z,11.70
2023-05-22T18:50:41.598Z,12.85
2023-05-22T18:55:45.329Z,12.70
2023-05-22T19:00:48.414Z,10.93
2023-05-22T19:05:51.061Z,9.52
2023-05-22T19:10:55.436Z,9.18
2023-05-22T19:15:58.058Z,10.70
2023-05-22T19:21:00.578Z,7.88
2023-05-22T19:26:03.753Z,9.10
2023-05-22T19:31:07.703Z,11.30
2023-05-22T19:36:10.991Z,11.35
2023-05-22T19:41:13.520Z,13.07
2023-05-22T19:46:16.059Z,10.98
2023-05-22T19:51:18.679Z,10.40
2023-05-22T19:56:21.410Z,13.07
2023-05-22T20:01:26.774Z,9.05
2023-05-22T20:06:31.833Z,13.18
2023-05-22T20:11:34.513Z,12.98
2023-05-22T20:16:37.448Z,10.80
2023-05-22T20:21:40.274Z,8.77
2023-05-22T20:26:44.988Z,7.85
2023-05-22T20:31:48.089Z,8.90
2023-05-22T20:36:50.882Z,9.30
2023-05-22T20:41:54.722Z,9.60
2023-05-22T20:46:58.992Z,8.35
2023-05-22T20:57:04.960Z,9.38
2023-05-22T21:02:08.282Z,8.23
2023-05-22T21:07:11.068Z,13.80
2023-05-22T21:12:13.752Z,16.95
2023-05-22T21:17:16.480Z,9.75
2023-05-22T21:22:19.221Z,10.18
2023-05-22T21:27:21.950Z,8.93
2023-05-22T21:32:24.487Z,11.30
2023-05-22T21:37:27.140Z,12.20
2023-05-22T21:42:44.951Z,7.70
2023-05-22T21:47:48.463Z,16.48
2023-05-22T21:52:51.093Z,11.95
2023-05-22T21:57:53.596Z,7.55
2023-05-22T22:02:57.735Z,8.98
2023-05-22T22:08:00.458Z,8.25
2023-05-22T22:13:03.369Z,7.90
2023-05-22T22:18:05.995Z,8.23
2023-05-22T22:23:08.670Z,8.60
2023-05-22T22:28:11.637Z,5.97
2023-05-22T22:33:14.133Z,9.07
2023-05-22T22:38:16.704Z,7.60
2023-05-22T22:43:19.547Z,8.23
2023-05-22T22:48:22.905Z,8.18
2023-05-22T22:53:25.832Z,8.68
2023-05-22T22:58:28.321Z,6.70
2023-05-22T23:03:30.991Z,8.60
2023-05-22T23:08:33.526Z,6.78
2023-05-22T23:13:36.445Z,9.15
2023-05-22T23:18:38.984Z,10.38
2023-05-22T23:23:41.517Z,11.40
2023-05-22T23:28:43.981Z,11.38
2023-05-22T23:33:47.886Z,12.35
2023-05-22T23:38:50.337Z,10.93
2023-05-22T23:43:52.903Z,8.23
2023-05-22T23:48:55.412Z,9.20
2023-05-22T23:53:57.923Z,8.77
2023-05-22T23:59:00.481Z,11.48
